Time;durP1;ratioP1;P1;durP2;ratioP2;P2;SDS_P1;SDS_P2;PMS_P1;PMS_P2;Temp;Humidity;BMP_temperature;BMP_pressure;BME280_temperature;BME280_humidity;BME280_pressure;Samples;Min_cycle;Max_cycle;Signal;HPM_P1;HPM_P2
2022/04/18 00:00:29;;;;;;;4.43;1.70;;;;;;;;;;5017990;28;20072;-76
2022/04/18 00:02:55;;;;;;;3.90;1.70;;;;;;;;;;5019383;28;20029;-76
2022/04/18 00:05:21;;;;;;;4.03;1.63;;;;;;;;;;5018531;28;20026;-76
2022/04/18 00:07:47;;;;;;;5.07;2.05;;;;;;;;;;5030787;28;20417;-76
2022/04/18 00:10:13;;;;;;;7.65;2.00;;;;;;;;;;5025720;28;20046;-76
2022/04/18 00:12:39;;;;;;;4.82;2.08;;;;;;;;;;5010916;28;20563;-76
2022/04/18 00:15:05;;;;;;;5.95;2.40;;;;;;;;;;5021100;28;20052;-76
2022/04/18 00:17:31;;;;;;;5.68;2.42;;;;;;;;;;5015393;28;20594;-76
2022/04/18 00:19:57;;;;;;;7.07;3.53;;;;;;;;;;5029468;28;20399;-76
2022/04/18 00:22:23;;;;;;;6.75;3.10;;;;;;;;;;5027097;28;20100;-76
2022/04/18 00:24:50;;;;;;;4.82;3.08;;;;;;;;;;5021804;28;20064;-76
2022/04/18 00:27:16;;;;;;;8.05;4.20;;;;;;;;;;5016544;28;20099;-76
2022/04/18 00:29:42;;;;;;;6.57;3.63;;;;;;;;;;5012718;28;20069;-75
2022/04/18 00:32:09;;;;;;;7.05;3.47;;;;;;;;;;5043720;28;20106;-76
2022/04/18 00:34:35;;;;;;;9.20;4.63;;;;;;;;;;5015632;28;20044;-76
2022/04/18 00:37:00;;;;;;;7.90;3.67;;;;;;;;;;5009716;28;20033;-76
2022/04/18 00:39:26;;;;;;;7.55;3.60;;;;;;;;;;5010048;28;20459;-76
2022/04/18 00:41:52;;;;;;;9.55;4.10;;;;;;;;;;5023700;28;20034;-76
2022/04/18 00:44:18;;;;;;;7.70;3.92;;;;;;;;;;5021857;28;20084;-76
2022/04/18 00:46:44;;;;;;;8.38;4.20;;;;;;;;;;5022692;28;20466;-76
2022/04/18 00:49:10;;;;;;;7.32;4.03;;;;;;;;;;5030085;28;20041;-76
2022/04/18 00:51:37;;;;;;;9.65;4.55;;;;;;;;;;5021219;28;20065;-76
2022/04/18 00:54:03;;;;;;;9.70;5.65;;;;;;;;;;5023182;28;20064;-76
2022/04/18 00:56:29;;;;;;;10.27;5.55;;;;;;;;;;5013272;28;20108;-76
2022/04/18 00:58:56;;;;;;;10.48;4.85;;;;;;;;;;5028189;28;20760;-76
2022/04/18 01:01:23;;;;;;;9.80;5.60;;;;;;;;;;5017524;28;20057;-76
2022/04/18 01:03:49;;;;;;;11.80;7.13;;;;;;;;;;5018562;28;20036;-76
2022/04/18 01:06:16;;;;;;;11.35;5.32;;;;;;;;;;5018893;28;20554;-76
2022/04/18 01:08:42;;;;;;;7.88;4.40;;;;;;;;;;5021041;28;20038;-76
2022/04/18 01:11:09;;;;;;;9.15;4.03;;;;;;;;;;5029718;28;20025;-76
2022/04/18 01:13:42;;;;;;;5.90;2.20;;;;;;;;;;5028684;28;20480;-76
2022/04/18 01:16:08;;;;;;;4.38;1.80;;;;;;;;;;5016687;28;20057;-76
2022/04/18 01:18:35;;;;;;;3.95;1.73;;;;;;;;;;5026841;28;20040;-76
2022/04/18 01:21:01;;;;;;;6.07;2.80;;;;;;;;;;5010924;28;20514;-76
2022/04/18 01:23:27;;;;;;;5.38;2.53;;;;;;;;;;5021158;28;20034;-76
2022/04/18 01:31:22;;;;;;;6.10;2.95;;;;;;;;;;5028937;28;20048;-76
2022/04/18 01:33:48;;;;;;;5.82;2.58;;;;;;;;;;5014414;28;20486;-76
2022/04/18 01:36:14;;;;;;;7.70;2.65;;;;;;;;;;5025562;28;20030;-76
2022/04/18 01:38:40;;;;;;;5.18;2.17;;;;;;;;;;5025006;28;20741;-76
2022/04/18 01:41:06;;;;;;;5.88;2.60;;;;;;;;;;5028900;28;20053;-76
2022/04/18 01:43:32;;;;;;;8.63;2.80;;;;;;;;;;5028898;28;20386;-76
2022/04/18 01:45:58;;;;;;;5.20;2.85;;;;;;;;;;5028652;28;20033;-76
2022/04/18 01:48:24;;;;;;;5.70;2.80;;;;;;;;;;5026654;28;20675;-76
2022/04/18 01:50:50;;;;;;;8.30;2.63;;;;;;;;;;5021797;28;20487;-76
2022/04/18 01:53:16;;;;;;;6.55;3.10;;;;;;;;;;5009568;28;20045;-76
2022/04/18 01:55:42;;;;;;;8.32;3.22;;;;;;;;;;5030042;28;20033;-76
2022/04/18 01:58:08;;;;;;;6.75;3.13;;;;;;;;;;5033096;28;20099;-75
2022/04/18 02:00:34;;;;;;;6.10;2.67;;;;;;;;;;5028541;28;20036;-76
2022/04/18 02:03:00;;;;;;;6.35;2.50;;;;;;;;;;5027914;28;20076;-76
2022/04/18 02:05:26;;;;;;;6.40;2.30;;;;;;;;;;5020865;28;20030;-76
2022/04/18 02:07:52;;;;;;;6.60;2.38;;;;;;;;;;5008919;28;20038;-76
2022/04/18 02:10:18;;;;;;;10.23;2.83;;;;;;;;;;5048850;28;20033;-76
2022/04/18 02:12:44;;;;;;;4.68;2.13;;;;;;;;;;5047254;28;20025;-76
2022/04/18 02:15:11;;;;;;;5.93;2.30;;;;;;;;;;5010140;28;20087;-76
2022/04/18 02:17:37;;;;;;;5.35;2.47;;;;;;;;;;5019051;28;20026;-76
2022/04/18 02:20:03;;;;;;;3.67;1.60;;;;;;;;;;5021215;28;20080;-76
2022/04/18 02:22:30;;;;;;;4.25;1.67;;;;;;;;;;5012613;28;20540;-76
2022/04/18 02:24:59;;;;;;;4.47;1.80;;;;;;;;;;5037776;28;20045;-76
2022/04/18 02:27:26;;;;;;;5.60;1.80;;;;;;;;;;5049647;28;20048;-76
2022/04/18 02:29:52;;;;;;;4.10;1.65;;;;;;;;;;5028744;28;20038;-76
2022/04/18 02:35:02;;;;;;;4.93;1.75;;;;;;;;;;5013715;28;20049;-76
2022/04/18 02:37:28;;;;;;;3.58;1.38;;;;;;;;;;5031716;28;20129;-76
2022/04/18 02:39:59;;;;;;;3.50;1.52;;;;;;;;;;5032030;28;20104;-76
2022/04/18 02:42:25;;;;;;;6.40;1.88;;;;;;;;;;5031739;28;20076;-76
2022/04/18 02:44:51;;;;;;;7.03;1.30;;;;;;;;;;5032330;28;20076;-76
2022/04/18 02:47:17;;;;;;;3.25;1.33;;;;;;;;;;5031472;28;20112;-76
2022/04/18 02:49:43;;;;;;;2.67;1.40;;;;;;;;;;5032637;28;20113;-76
2022/04/18 02:52:09;;;;;;;7.22;1.35;;;;;;;;;;5031599;28;20037;-75
2022/04/18 02:54:35;;;;;;;4.85;1.90;;;;;;;;;;5032462;28;20116;-76
2022/04/18 02:57:01;;;;;;;5.25;1.98;;;;;;;;;;5031502;28;20037;-76
2022/04/18 02:59:27;;;;;;;5.25;2.10;;;;;;;;;;5032312;28;20030;-76
2022/04/18 03:01:53;;;;;;;7.50;2.30;;;;;;;;;;5017555;28;20029;-76
2022/04/18 03:04:19;;;;;;;6.30;2.03;;;;;;;;;;5012594;28;20644;-76
2022/04/18 03:06:45;;;;;;;5.88;2.00;;;;;;;;;;5023986;28;20045;-76
2022/04/18 03:09:11;;;;;;;4.78;2.40;;;;;;;;;;5032229;28;20442;-76
2022/04/18 03:11:37;;;;;;;19.50;3.08;;;;;;;;;;5031322;28;20033;-76
2022/04/18 03:14:03;;;;;;;5.90;2.30;;;;;;;;;;5032114;28;20636;-76
2022/04/18 03:16:29;;;;;;;7.35;2.95;;;;;;;;;;5029704;28;20034;-76
2022/04/18 03:18:55;;;;;;;6.93;2.20;;;;;;;;;;5019706;28;20038;-76
2022/04/18 03:21:21;;;;;;;7.20;2.95;;;;;;;;;;5020858;28;20550;-76
2022/04/18 03:23:47;;;;;;;6.60;2.72;;;;;;;;;;5031594;28;20187;-76
2022/04/18 03:26:13;;;;;;;6.88;2.55;;;;;;;;;;5030839;28;20712;-76
2022/04/18 03:28:39;;;;;;;6.72;2.55;;;;;;;;;;5030412;28;20033;-76
2022/04/18 03:31:05;;;;;;;6.00;1.92;;;;;;;;;;5030559;28;20025;-76
2022/04/18 03:33:31;;;;;;;4.72;2.47;;;;;;;;;;5031328;28;20352;-76
2022/04/18 03:41:26;;;;;;;6.93;2.80;;;;;;;;;;5015210;28;20039;-76
2022/04/18 03:43:52;;;;;;;10.10;3.30;;;;;;;;;;5026600;28;20045;-76
2022/04/18 03:46:19;;;;;;;6.47;3.03;;;;;;;;;;5016801;28;20467;-76
2022/04/18 03:48:45;;;;;;;6.68;2.80;;;;;;;;;;5031556;28;20038;-76
2022/04/18 03:51:11;;;;;;;6.13;2.20;;;;;;;;;;5025884;28;20099;-76
2022/04/18 03:53:37;;;;;;;7.32;2.50;;;;;;;;;;5015865;28;20073;-76
2022/04/18 03:56:03;;;;;;;8.40;2.33;;;;;;;;;;5015785;28;20029;-76
2022/04/18 03:58:29;;;;;;;8.30;2.65;;;;;;;;;;5030094;28;20033;-76
2022/04/18 04:00:55;;;;;;;7.40;2.65;;;;;;;;;;5031255;28;20835;-75
2022/04/18 04:03:21;;;;;;;5.63;2.33;;;;;;;;;;5019428;28;20115;-76
2022/04/18 04:05:47;;;;;;;4.72;2.25;;;;;;;;;;5030406;28;20059;-76
2022/04/18 04:08:13;;;;;;;6.10;2.22;;;;;;;;;;5015629;28;20531;-76
2022/04/18 04:10:39;;;;;;;5.03;2.25;;;;;;;;;;5026578;28;20029;-75
2022/04/18 04:13:06;;;;;;;5.95;2.80;;;;;;;;;;5022888;28;20151;-76
2022/04/18 04:15:32;;;;;;;5.90;2.70;;;;;;;;;;5029596;28;20025;-75
2022/04/18 04:17:58;;;;;;;6.18;2.28;;;;;;;;;;5027774;28;20038;-76
2022/04/18 04:20:24;;;;;;;7.18;2.30;;;;;;;;;;5013946;28;20589;-76
2022/04/18 04:22:51;;;;;;;5.40;2.55;;;;;;;;;;5010707;28;20042;-76
2022/04/18 04:25:18;;;;;;;7.15;2.75;;;;;;;;;;5023650;28;20141;-76
2022/04/18 04:27:44;;;;;;;6.35;2.70;;;;;;;;;;5023170;28;20112;-75
2022/04/18 04:30:10;;;;;;;9.27;2.95;;;;;;;;;;5018102;28;20037;-76
2022/04/18 04:32:36;;;;;;;6.00;2.20;;;;;;;;;;5030330;28;20041;-76
2022/04/18 04:35:02;;;;;;;6.70;2.60;;;;;;;;;;5030122;28;20029;-76
2022/04/18 04:37:28;;;;;;;7.13;2.67;;;;;;;;;;5030438;28;20040;-76
2022/04/18 04:39:54;;;;;;;7.03;3.10;;;;;;;;;;5029856;28;20112;-77
2022/04/18 04:42:20;;;;;;;13.70;6.00;;;;;;;;;;5017470;28;20030;-76
2022/04/18 04:44:46;;;;;;;12.45;5.20;;;;;;;;;;5012985;28;20034;-76
2022/04/18 04:47:12;;;;;;;7.20;3.75;;;;;;;;;;5029410;28;20043;-76
2022/04/18 04:49:38;;;;;;;6.93;3.50;;;;;;;;;;5010927;28;20042;-76
2022/04/18 04:52:05;;;;;;;7.60;4.13;;;;;;;;;;5023342;28;20497;-76
2022/04/18 04:54:31;;;;;;;7.72;4.47;;;;;;;;;;5025758;28;20034;-76
2022/04/18 04:56:57;;;;;;;7.57;4.57;;;;;;;;;;5020658;28;20029;-77
2022/04/18 04:59:23;;;;;;;8.10;3.78;;;;;;;;;;5029629;28;20034;-76
2022/04/18 05:01:49;;;;;;;8.40;3.80;;;;;;;;;;5015477;28;20078;-76
2022/04/18 05:04:15;;;;;;;7.95;4.13;;;;;;;;;;5041649;28;20454;-76
2022/04/18 05:06:41;;;;;;;8.50;3.47;;;;;;;;;;5038074;28;20033;-76
2022/04/18 05:09:08;;;;;;;6.95;2.47;;;;;;;;;;5020600;28;20037;-76
2022/04/18 05:11:34;;;;;;;7.82;2.53;;;;;;;;;;5029776;28;20043;-76
2022/04/18 05:14:00;;;;;;;5.38;2.47;;;;;;;;;;5028797;28;20033;-76
2022/04/18 05:16:26;;;;;;;5.07;1.85;;;;;;;;;;5029657;28;20478;-76
2022/04/18 05:18:52;;;;;;;7.10;2.33;;;;;;;;;;5025523;28;20026;-76
2022/04/18 05:21:18;;;;;;;5.25;2.78;;;;;;;;;;5029896;28;20021;-76
2022/04/18 05:23:45;;;;;;;5.88;2.17;;;;;;;;;;5028652;28;20529;-76
2022/04/18 05:26:11;;;;;;;5.05;2.67;;;;;;;;;;5025906;28;20060;-76
2022/04/18 05:28:37;;;;;;;8.20;3.58;;;;;;;;;;5020359;28;20069;-76
2022/04/18 05:31:03;;;;;;;6.00;2.50;;;;;;;;;;5012583;28;20802;-76
2022/04/18 05:33:29;;;;;;;5.60;2.55;;;;;;;;;;5021267;28;20038;-76
2022/04/18 05:35:55;;;;;;;6.90;2.72;;;;;;;;;;5015010;28;20399;-76
2022/04/18 05:38:21;;;;;;;4.60;2.42;;;;;;;;;;5009529;28;20085;-76
2022/04/18 05:40:47;;;;;;;7.53;3.03;;;;;;;;;;5021316;28;20033;-76
2022/04/18 05:43:13;;;;;;;8.13;3.63;;;;;;;;;;5029320;28;20078;-76
2022/04/18 05:45:39;;;;;;;7.65;3.97;;;;;;;;;;5028908;28;20069;-75
2022/04/18 05:48:06;;;;;;;8.98;3.55;;;;;;;;;;5029382;28;20045;-76
2022/04/18 05:50:32;;;;;;;10.48;3.30;;;;;;;;;;5018088;28;20814;-76
2022/04/18 05:52:58;;;;;;;8.55;3.15;;;;;;;;;;5028691;28;20045;-76
2022/04/18 05:55:24;;;;;;;8.02;3.53;;;;;;;;;;5023558;28;20030;-76
2022/04/18 05:57:52;;;;;;;6.97;3.47;;;;;;;;;;5029197;28;20042;-76
2022/04/18 06:00:18;;;;;;;7.05;3.38;;;;;;;;;;5022060;28;20053;-76
2022/04/18 06:02:44;;;;;;;5.88;3.22;;;;;;;;;;5029203;28;20615;-76
2022/04/18 06:05:10;;;;;;;7.30;3.22;;;;;;;;;;5028938;28;20112;-76
2022/04/18 06:07:36;;;;;;;8.95;3.72;;;;;;;;;;5019028;28;20036;-76
2022/04/18 06:10:03;;;;;;;6.15;3.00;;;;;;;;;;5026853;28;20034;-76
2022/04/18 06:12:29;;;;;;;6.57;2.58;;;;;;;;;;5043079;28;20091;-76
2022/04/18 06:14:55;;;;;;;11.68;2.42;;;;;;;;;;5032076;28;20037;-76
2022/04/18 06:17:21;;;;;;;4.43;2.22;;;;;;;;;;5021062;28;20029;-76
2022/04/18 06:19:49;;;;;;;4.00;2.22;;;;;;;;;;5030584;28;20036;-76
2022/04/18 06:22:16;;;;;;;4.80;2.58;;;;;;;;;;5024919;28;20105;-76
2022/04/18 06:24:42;;;;;;;4.10;2.25;;;;;;;;;;5028293;28;20054;-76
2022/04/18 06:27:08;;;;;;;5.50;3.08;;;;;;;;;;5028501;28;20037;-76
2022/04/18 06:29:35;;;;;;;6.82;2.78;;;;;;;;;;5027378;28;20082;-76
2022/04/18 06:32:01;;;;;;;5.78;2.28;;;;;;;;;;5023111;28;20042;-76
2022/04/18 06:34:28;;;;;;;5.47;2.30;;;;;;;;;;5023616;28;20124;-76
2022/04/18 06:36:54;;;;;;;5.40;2.40;;;;;;;;;;5027950;28;20498;-76
2022/04/18 06:39:20;;;;;;;7.00;2.75;;;;;;;;;;5028314;28;20068;-76
2022/04/18 06:41:46;;;;;;;10.88;2.58;;;;;;;;;;5033014;28;20065;-76
2022/04/18 06:44:12;;;;;;;6.80;2.50;;;;;;;;;;5027577;28;20038;-76
2022/04/18 06:46:38;;;;;;;4.78;2.28;;;;;;;;;;5036287;28;20344;-76
2022/04/18 06:49:04;;;;;;;5.03;1.95;;;;;;;;;;5018279;28;20043;-76
2022/04/18 06:51:30;;;;;;;8.43;2.28;;;;;;;;;;5025681;28;20033;-76
2022/04/18 06:53:56;;;;;;;4.95;2.38;;;;;;;;;;5021152;28;20037;-76
2022/04/18 06:59:08;;;;;;;4.75;2.50;;;;;;;;;;5029742;28;20064;-76
2022/04/18 07:01:34;;;;;;;5.25;2.00;;;;;;;;;;5024533;28;20503;-76
2022/04/18 07:04:00;;;;;;;4.47;2.17;;;;;;;;;;5024883;28;20033;-76
2022/04/18 07:06:26;;;;;;;5.82;2.10;;;;;;;;;;5022392;28;20041;-76
2022/04/18 07:08:52;;;;;;;6.22;2.00;;;;;;;;;;5020894;28;20038;-76
2022/04/18 07:11:18;;;;;;;6.40;1.85;;;;;;;;;;5024768;28;20025;-76
2022/04/18 07:13:44;;;;;;;4.22;1.90;;;;;;;;;;5037171;28;20061;-76
2022/04/18 07:16:10;;;;;;;4.70;1.42;;;;;;;;;;5018917;28;20022;-76
2022/04/18 07:18:36;;;;;;;5.20;2.03;;;;;;;;;;5029131;28;20035;-76
2022/04/18 07:21:03;;;;;;;6.20;1.92;;;;;;;;;;5028950;28;20029;-76
2022/04/18 07:23:29;;;;;;;4.00;1.77;;;;;;;;;;5027428;28;20108;-76
2022/04/18 07:25:56;;;;;;;5.22;2.03;;;;;;;;;;5033994;28;20521;-76
2022/04/18 07:28:22;;;;;;;6.70;1.95;;;;;;;;;;5030947;28;20049;-76
2022/04/18 07:30:48;;;;;;;5.72;1.80;;;;;;;;;;5016101;28;20033;-76
2022/04/18 07:33:15;;;;;;;4.90;1.77;;;;;;;;;;5021378;28;20048;-76
2022/04/18 07:35:41;;;;;;;4.20;2.15;;;;;;;;;;5022580;28;20036;-76
2022/04/18 07:40:53;;;;;;;6.20;1.80;;;;;;;;;;5031798;28;20036;-76
2022/04/18 07:43:19;;;;;;;5.55;1.92;;;;;;;;;;5012702;28;20037;-76
2022/04/18 07:45:45;;;;;;;5.13;2.28;;;;;;;;;;5013522;28;20033;-76
2022/04/18 07:48:11;;;;;;;3.85;2.08;;;;;;;;;;5022884;28;20113;-76
2022/04/18 07:53:27;;;;;;;6.80;2.22;;;;;;;;;;5000949;28;20085;-76
2022/04/18 07:55:53;;;;;;;3.90;1.75;;;;;;;;;;5025455;28;20550;-76
2022/04/18 07:58:19;;;;;;;6.30;1.88;;;;;;;;;;5024399;28;20036;-76
2022/04/18 08:00:44;;;;;;;4.10;1.67;;;;;;;;;;5030305;28;20029;-76
2022/04/18 08:03:11;;;;;;;4.28;1.70;;;;;;;;;;5030764;28;20046;-76
2022/04/18 08:05:37;;;;;;;3.85;1.60;;;;;;;;;;5030347;28;20032;-76
2022/04/18 08:08:03;;;;;;;3.00;1.50;;;;;;;;;;5030898;28;20041;-76
2022/04/18 08:10:29;;;;;;;4.78;1.80;;;;;;;;;;5030327;28;20139;-76
2022/04/18 08:12:55;;;;;;;2.72;1.40;;;;;;;;;;5034731;28;20029;-76
2022/04/18 08:15:21;;;;;;;3.05;1.40;;;;;;;;;;5020730;28;20045;-76
2022/04/18 08:17:47;;;;;;;4.03;1.50;;;;;;;;;;5026449;28;20474;-76
2022/04/18 08:20:13;;;;;;;4.82;1.50;;;;;;;;;;5028872;28;20038;-76
2022/04/18 08:22:41;;;;;;;3.72;1.63;;;;;;;;;;5028781;28;20033;-76
2022/04/18 08:25:07;;;;;;;4.82;1.83;;;;;;;;;;5027845;28;20037;-76
2022/04/18 08:27:33;;;;;;;4.70;1.52;;;;;;;;;;5021716;28;20029;-76
2022/04/18 08:30:00;;;;;;;4.70;1.77;;;;;;;;;;5024736;28;20033;-76
2022/04/18 08:32:26;;;;;;;3.22;1.60;;;;;;;;;;5024449;28;20040;-76
2022/04/18 08:34:54;;;;;;;4.80;1.80;;;;;;;;;;5029883;28;20044;-76
2022/04/18 08:37:20;;;;;;;3.30;1.48;;;;;;;;;;5013947;28;20034;-75
2022/04/18 08:39:46;;;;;;;3.92;1.75;;;;;;;;;;5022515;28;20037;-76
2022/04/18 08:42:12;;;;;;;2.65;1.45;;;;;;;;;;5011517;28;20124;-76
2022/04/18 08:44:38;;;;;;;3.42;1.40;;;;;;;;;;5062774;22;20148;-76
2022/04/18 08:47:04;;;;;;;2.67;1.58;;;;;;;;;;5070296;28;20033;-76
2022/04/18 08:55:01;;;;;;;4.05;1.75;;;;;;;;;;5066430;28;20051;-76
2022/04/18 08:57:27;;;;;;;5.97;1.75;;;;;;;;;;5064372;28;20037;-76
2022/04/18 08:59:53;;;;;;;2.97;1.60;;;;;;;;;;5064432;28;20082;-76
2022/04/18 09:02:19;;;;;;;3.42;1.77;;;;;;;;;;5064432;28;20062;-76
2022/04/18 09:04:45;;;;;;;6.45;2.15;;;;;;;;;;5061532;28;20044;-76
2022/04/18 09:07:15;;;;;;;2.95;1.63;;;;;;;;;;5067112;28;20043;-76
2022/04/18 09:09:42;;;;;;;7.40;1.90;;;;;;;;;;5069244;28;20042;-76
2022/04/18 09:12:19;;;;;;;3.70;1.50;;;;;;;;;;5068746;28;20067;-76
2022/04/18 09:14:51;;;;;;;4.72;1.60;;;;;;;;;;5054276;28;20036;-76
2022/04/18 09:17:33;;;;;;;6.57;1.65;;;;;;;;;;5068414;28;20032;-76
2022/04/18 09:20:06;;;;;;;6.05;1.80;;;;;;;;;;5059239;28;20037;-76
2022/04/18 09:22:40;;;;;;;3.50;1.70;;;;;;;;;;5057871;28;20040;-76
2022/04/18 09:25:12;;;;;;;7.18;1.55;;;;;;;;;;5066426;28;20090;-76
2022/04/18 09:27:38;;;;;;;5.20;1.85;;;;;;;;;;5065937;28;20032;-76
2022/04/18 09:30:05;;;;;;;6.18;1.52;;;;;;;;;;5062113;28;20056;-76
2022/04/18 09:32:31;;;;;;;5.32;1.55;;;;;;;;;;5066713;28;20111;-76
2022/04/18 09:35:01;;;;;;;5.65;1.67;;;;;;;;;;5067459;28;20115;-76
2022/04/18 09:37:28;;;;;;;3.20;1.50;;;;;;;;;;5075971;28;20031;-76
2022/04/18 09:39:55;;;;;;;3.72;1.58;;;;;;;;;;5072758;28;20074;-76
2022/04/18 09:42:22;;;;;;;5.43;1.70;;;;;;;;;;5068365;28;20082;-76
2022/04/18 09:44:48;;;;;;;4.63;1.70;;;;;;;;;;5067677;28;20052;-76
2022/04/18 09:47:17;;;;;;;5.90;1.88;;;;;;;;;;5067105;28;20792;-76
2022/04/18 09:49:43;;;;;;;7.18;1.77;;;;;;;;;;5068213;28;20102;-76
2022/04/18 09:52:15;;;;;;;3.92;1.40;;;;;;;;;;5068049;28;20033;-76
2022/04/18 09:54:51;;;;;;;5.78;1.40;;;;;;;;;;5068050;28;20036;-76
2022/04/18 09:57:25;;;;;;;5.43;1.63;;;;;;;;;;5055214;28;20032;-76
2022/04/18 09:59:51;;;;;;;3.38;1.30;;;;;;;;;;5069147;28;20029;-76
2022/04/18 10:02:18;;;;;;;4.22;1.92;;;;;;;;;;5067789;28;20039;-76
2022/04/18 10:04:44;;;;;;;4.95;2.00;;;;;;;;;;5061373;28;20032;-76
2022/04/18 10:07:10;;;;;;;3.50;1.40;;;;;;;;;;5058597;28;20044;-76
2022/04/18 10:09:40;;;;;;;3.95;1.67;;;;;;;;;;5069061;28;20123;-76
2022/04/18 10:12:10;;;;;;;4.82;1.77;;;;;;;;;;5066606;28;20036;-76
2022/04/18 10:14:37;;;;;;;4.10;1.85;;;;;;;;;;5061915;28;20032;-76
2022/04/18 10:17:03;;;;;;;5.10;1.55;;;;;;;;;;5057408;28;20448;-76
2022/04/18 10:19:48;;;;;;;6.28;1.48;;;;;;;;;;5055664;28;20025;-76
2022/04/18 10:22:30;;;;;;;3.28;1.23;;;;;;;;;;5066681;28;20416;-76
2022/04/18 10:25:06;;;;;;;3.75;1.40;;;;;;;;;;5065225;28;20040;-76
2022/04/18 10:27:32;;;;;;;6.88;1.45;;;;;;;;;;5059845;28;20036;-76
2022/04/18 10:30:00;;;;;;;8.15;5.03;;;;;;;;;;5067756;28;20028;-76
2022/04/18 10:32:27;;;;;;;5.78;2.70;;;;;;;;;;5067959;28;20051;-76
2022/04/18 10:34:56;;;;;;;7.15;3.20;;;;;;;;;;5057942;28;20033;-76
2022/04/18 10:37:26;;;;;;;7.88;1.65;;;;;;;;;;5062908;28;20036;-76
2022/04/18 10:40:00;;;;;;;4.20;2.05;;;;;;;;;;5064515;28;20029;-76
2022/04/18 10:42:29;;;;;;;3.97;1.30;;;;;;;;;;5070965;28;20040;-76
2022/04/18 10:45:08;;;;;;;6.32;1.70;;;;;;;;;;5071324;28;20532;-75
2022/04/18 10:47:53;;;;;;;5.50;1.83;;;;;;;;;;5065654;28;20032;-76
2022/04/18 10:50:20;;;;;;;5.18;2.20;;;;;;;;;;5061693;28;20528;-76
2022/04/18 10:53:05;;;;;;;4.00;2.00;;;;;;;;;;5071055;28;20079;-76
2022/04/18 10:55:31;;;;;;;4.32;1.73;;;;;;;;;;5064700;28;20043;-76
2022/04/18 10:58:16;;;;;;;4.70;1.85;;;;;;;;;;5071204;28;20046;-76
2022/04/18 11:01:02;;;;;;;5.55;2.10;;;;;;;;;;5056641;28;20124;-76
2022/04/18 11:03:47;;;;;;;5.93;1.85;;;;;;;;;;5057479;28;20032;-76
2022/04/18 11:06:16;;;;;;;3.92;1.63;;;;;;;;;;5056825;28;20028;-76
2022/04/18 11:08:56;;;;;;;9.30;4.00;;;;;;;;;;5063980;28;20033;-76
2022/04/18 11:11:22;;;;;;;5.68;3.60;;;;;;;;;;5062241;28;20025;-76
2022/04/18 11:13:49;;;;;;;10.43;6.95;;;;;;;;;;5070305;28;20051;-76
2022/04/18 11:16:24;;;;;;;4.18;2.10;;;;;;;;;;5070579;28;20021;-76
2022/04/18 11:19:10;;;;;;;7.38;3.97;;;;;;;;;;5065393;28;20041;-76
2022/04/18 11:22:04;;;;;;;8.13;3.85;;;;;;;;;;5007966;28;20119;-76
2022/04/18 11:24:36;;;;;;;8.68;3.50;;;;;;;;;;5063707;28;20048;-76
2022/04/18 11:27:03;;;;;;;14.02;9.43;;;;;;;;;;5067657;28;20021;-76
2022/04/18 11:29:31;;;;;;;9.75;5.53;;;;;;;;;;5064111;28;20649;-76
2022/04/18 11:31:57;;;;;;;8.77;5.10;;;;;;;;;;5066184;28;20024;-76
2022/04/18 11:34:27;;;;;;;9.40;5.95;;;;;;;;;;5070877;28;20462;-76
2022/04/18 11:36:57;;;;;;;4.45;2.20;;;;;;;;;;5066685;28;20148;-76
2022/04/18 11:39:24;;;;;;;5.53;3.10;;;;;;;;;;5067244;28;20040;-76
2022/04/18 11:42:01;;;;;;;23.77;14.85;;;;;;;;;;5070131;28;20025;-76
2022/04/18 11:44:27;;;;;;;13.70;8.25;;;;;;;;;;5064929;28;20057;-76
2022/04/18 11:46:54;;;;;;;8.18;4.97;;;;;;;;;;5058800;28;20036;-76
2022/04/18 11:49:29;;;;;;;6.97;2.30;;;;;;;;;;5065205;28;20759;-76
2022/04/18 11:51:55;;;;;;;4.20;2.03;;;;;;;;;;5074985;28;20039;-76
2022/04/18 11:54:21;;;;;;;3.83;1.67;;;;;;;;;;5065573;28;20033;-76
2022/04/18 11:57:00;;;;;;;3.58;1.60;;;;;;;;;;5057035;28;20059;-76
2022/04/18 11:59:27;;;;;;;4.82;1.83;;;;;;;;;;5054457;28;20044;-76
2022/04/18 12:07:24;;;;;;;4.45;1.80;;;;;;;;;;5069664;28;20138;-76
2022/04/18 12:09:50;;;;;;;4.90;1.75;;;;;;;;;;5067760;28;20037;-76
2022/04/18 12:12:26;;;;;;;5.78;1.50;;;;;;;;;;5069192;28;20064;-76
2022/04/18 12:14:52;;;;;;;7.47;1.80;;;;;;;;;;5066022;28;20093;-75
2022/04/18 12:17:18;;;;;;;3.45;1.65;;;;;;;;;;5069280;28;20032;-76
2022/04/18 12:19:44;;;;;;;3.03;1.20;;;;;;;;;;5063057;28;20028;-76
2022/04/18 12:22:20;;;;;;;4.45;1.70;;;;;;;;;;5069073;28;20110;-76
2022/04/18 12:24:46;;;;;;;3.75;1.70;;;;;;;;;;5071884;28;20037;-76
2022/04/18 12:27:12;;;;;;;4.68;1.63;;;;;;;;;;5069770;28;20044;-76
2022/04/18 12:29:38;;;;;;;7.20;1.33;;;;;;;;;;5064706;28;20077;-76
2022/04/18 12:32:04;;;;;;;3.75;1.33;;;;;;;;;;5065538;28;20075;-76
2022/04/18 12:34:30;;;;;;;3.72;1.20;;;;;;;;;;5068044;28;20040;-76
2022/04/18 12:36:59;;;;;;;4.90;1.38;;;;;;;;;;5064655;28;20102;-76
2022/04/18 12:39:26;;;;;;;4.00;1.77;;;;;;;;;;5065315;28;20039;-76
2022/04/18 12:42:02;;;;;;;5.03;2.20;;;;;;;;;;5059802;28;20466;-76
2022/04/18 12:44:28;;;;;;;4.65;1.30;;;;;;;;;;5061928;28;20476;-76
2022/04/18 12:46:54;;;;;;;4.53;1.25;;;;;;;;;;5068454;28;20079;-76
2022/04/18 12:49:20;;;;;;;3.00;1.00;;;;;;;;;;5062120;28;20065;-76
2022/04/18 12:51:49;;;;;;;4.78;1.00;;;;;;;;;;5067470;28;20115;-76
2022/04/18 12:54:20;;;;;;;4.25;1.20;;;;;;;;;;5068679;28;20033;-75
2022/04/18 12:56:49;;;;;;;1.70;0.90;;;;;;;;;;5062219;28;20074;-76
2022/04/18 12:59:22;;;;;;;6.85;1.15;;;;;;;;;;5061405;28;20040;-76
2022/04/18 13:01:48;;;;;;;5.05;1.27;;;;;;;;;;5068383;28;20032;-76
2022/04/18 13:04:25;;;;;;;2.45;1.10;;;;;;;;;;5067086;28;20496;-76
2022/04/18 13:06:59;;;;;;;2.67;1.08;;;;;;;;;;5064497;28;20037;-76
2022/04/18 13:09:26;;;;;;;3.15;1.20;;;;;;;;;;5054672;28;20041;-76
2022/04/18 13:12:00;;;;;;;3.30;1.17;;;;;;;;;;5064099;28;20037;-76
2022/04/18 13:14:25;;;;;;;2.00;0.90;;;;;;;;;;5066320;28;20036;-76
2022/04/18 13:17:04;;;;;;;5.38;1.30;;;;;;;;;;5067943;28;20378;-76
2022/04/18 13:19:30;;;;;;;2.67;1.23;;;;;;;;;;5073387;28;20032;-76
2022/04/18 13:21:56;;;;;;;2.80;1.15;;;;;;;;;;5068189;28;20029;-76
2022/04/18 13:24:22;;;;;;;3.88;0.82;;;;;;;;;;5057174;28;20072;-76
2022/04/18 13:26:48;;;;;;;2.45;0.90;;;;;;;;;;5067726;28;20085;-76
2022/04/18 13:29:14;;;;;;;3.05;0.90;;;;;;;;;;5062530;28;20127;-76
2022/04/18 13:31:41;;;;;;;2.70;1.02;;;;;;;;;;5046135;28;20493;-76
2022/04/18 13:34:07;;;;;;;2.63;1.00;;;;;;;;;;5064629;28;20040;-76
2022/04/18 13:36:33;;;;;;;4.43;0.90;;;;;;;;;;5059510;28;20024;-76
2022/04/18 13:39:02;;;;;;;4.20;1.08;;;;;;;;;;5062480;28;20037;-76
2022/04/18 13:41:29;;;;;;;3.28;0.80;;;;;;;;;;5068744;28;20568;-76
2022/04/18 13:43:55;;;;;;;2.33;1.00;;;;;;;;;;5056804;28;20084;-76
2022/04/18 13:46:21;;;;;;;2.60;1.00;;;;;;;;;;5063557;28;20166;-76
2022/04/18 13:48:48;;;;;;;6.45;0.90;;;;;;;;;;5060588;28;20037;-76
2022/04/18 13:51:21;;;;;;;3.17;0.80;;;;;;;;;;5047895;28;20039;-76
2022/04/18 13:53:48;;;;;;;3.72;0.82;;;;;;;;;;5040291;28;20804;-76
2022/04/18 13:56:14;;;;;;;5.10;0.93;;;;;;;;;;5065733;28;20389;-76
2022/04/18 13:58:41;;;;;;;2.63;0.82;;;;;;;;;;5068313;28;20043;-76
2022/04/18 14:01:07;;;;;;;2.40;0.80;;;;;;;;;;5073835;28;20068;-76
2022/04/18 14:03:33;;;;;;;1.80;0.77;;;;;;;;;;5057750;28;20056;-76
2022/04/18 14:06:02;;;;;;;1.77;0.77;;;;;;;;;;5066207;28;20031;-76
2022/04/18 14:08:28;;;;;;;5.05;0.82;;;;;;;;;;5064749;28;20041;-76
2022/04/18 14:10:54;;;;;;;4.00;0.73;;;;;;;;;;5067192;28;20473;-76
2022/04/18 14:13:21;;;;;;;3.08;0.63;;;;;;;;;;5069429;28;20077;-76
2022/04/18 14:21:16;;;;;;;2.30;0.50;;;;;;;;;;5069992;28;20035;-76
2022/04/18 14:23:42;;;;;;;1.88;0.80;;;;;;;;;;5070738;28;20028;-76
2022/04/18 14:26:08;;;;;;;2.35;0.70;;;;;;;;;;5068663;28;20388;-76
2022/04/18 14:28:34;;;;;;;3.70;1.10;;;;;;;;;;5070568;28;20040;-76
2022/04/18 14:31:00;;;;;;;2.65;0.70;;;;;;;;;;5065077;28;20032;-76
2022/04/18 14:33:26;;;;;;;2.97;1.10;;;;;;;;;;5068569;28;20036;-76
2022/04/18 14:35:52;;;;;;;3.08;1.00;;;;;;;;;;5070825;28;20032;-76
2022/04/18 14:38:18;;;;;;;1.67;0.60;;;;;;;;;;5070696;28;20041;-76
2022/04/18 14:40:44;;;;;;;3.53;0.80;;;;;;;;;;5070943;28;20091;-76
2022/04/18 14:43:14;;;;;;;5.10;1.02;;;;;;;;;;5070299;28;20127;-76
2022/04/18 14:45:41;;;;;;;1.73;0.60;;;;;;;;;;5066029;28;20025;-76
2022/04/18 14:48:08;;;;;;;2.97;0.65;;;;;;;;;;5069493;28;20036;-76
2022/04/18 14:50:34;;;;;;;2.58;0.80;;;;;;;;;;5070931;28;20625;-76
2022/04/18 14:53:00;;;;;;;3.72;0.70;;;;;;;;;;5069033;28;20111;-76
2022/04/18 14:55:26;;;;;;;4.20;0.85;;;;;;;;;;5069815;28;20042;-76
2022/04/18 14:57:52;;;;;;;4.45;0.70;;;;;;;;;;5067846;28;20090;-76
2022/04/18 15:00:18;;;;;;;5.63;0.60;;;;;;;;;;5071087;28;20492;-76
2022/04/18 15:02:44;;;;;;;1.80;0.60;;;;;;;;;;5076100;28;20074;-76
2022/04/18 15:05:11;;;;;;;2.53;0.70;;;;;;;;;;5071647;28;20028;-76
2022/04/18 15:07:38;;;;;;;1.85;0.60;;;;;;;;;;5066052;28;20032;-77
2022/04/18 15:10:05;;;;;;;7.05;0.80;;;;;;;;;;5063742;28;20025;-76
2022/04/18 15:12:31;;;;;;;3.30;0.85;;;;;;;;;;5061941;28;20554;-76
2022/04/18 15:14:57;;;;;;;2.85;0.80;;;;;;;;;;5059612;28;20401;-76
2022/04/18 15:17:23;;;;;;;3.40;0.80;;;;;;;;;;5062427;28;20115;-76
2022/04/18 15:19:49;;;;;;;8.75;0.90;;;;;;;;;;5068566;28;20047;-76
2022/04/18 15:22:15;;;;;;;2.28;0.77;;;;;;;;;;5069907;28;20611;-76